Time;durP1;ratioP1;P1;durP2;ratioP2;P2;SDS_P1;SDS_P2;PMS_P1;PMS_P2;Temp;Humidity;BMP_temperature;BMP_pressure;BME280_temperature;BME280_humidity;BME280_pressure;Samples;Min_cycle;Max_cycle;Signal;HPM_P1;HPM_P2
2023/06/11 00:01:43;;;;;;;6.13;4.10;;;21.70;74.40;;;;;;5121593;27;45299;-71
2023/06/11 00:04:13;;;;;;;7.57;4.18;;;21.70;74.00;;;;;;5119889;27;45493;-70
2023/06/11 00:06:40;;;;;;;5.90;4.10;;;21.70;74.10;;;;;;5117985;27;48017;-70
2023/06/11 00:09:07;;;;;;;6.03;4.50;;;21.70;73.90;;;;;;5114557;27;45479;-71
2023/06/11 00:11:41;;;;;;;6.55;4.18;;;21.70;73.80;;;;;;5116430;27;45467;-71
2023/06/11 00:14:08;;;;;;;7.75;4.20;;;21.60;74.00;;;;;;5115497;27;45233;-71
2023/06/11 00:16:36;;;;;;;7.03;4.38;;;21.60;73.50;;;;;;5116764;27;48043;-72
2023/06/11 00:19:05;;;;;;;8.32;4.38;;;21.60;73.80;;;;;;5120169;27;45405;-70
2023/06/11 00:21:31;;;;;;;6.70;3.70;;;21.60;73.30;;;;;;5121055;27;45396;-70
2023/06/11 00:23:58;;;;;;;8.10;4.10;;;21.60;73.70;;;;;;5119180;27;45322;-70
2023/06/11 00:26:26;;;;;;;9.25;3.97;;;21.60;73.30;;;;;;5111351;27;46928;-71
2023/06/11 00:28:53;;;;;;;6.20;4.20;;;21.60;73.80;;;;;;5119343;27;45865;-71
2023/06/11 00:31:20;;;;;;;7.00;4.15;;;21.60;73.50;;;;;;5121368;27;45310;-71
2023/06/11 00:33:47;;;;;;;9.27;4.68;;;21.50;73.60;;;;;;5118954;27;45516;-71
2023/06/11 00:36:15;;;;;;;9.35;4.75;;;21.50;73.70;;;;;;5125473;27;46567;-71
2023/06/11 00:38:42;;;;;;;8.05;4.60;;;21.50;73.80;;;;;;5120780;27;45435;-71
2023/06/11 00:41:08;;;;;;;7.22;4.30;;;21.50;73.60;;;;;;5121587;27;45499;-70
2023/06/11 00:43:37;;;;;;;5.93;4.45;;;21.50;73.80;;;;;;5121461;27;45399;-72
2023/06/11 00:46:10;;;;;;;8.43;4.10;;;21.50;73.80;;;;;;5121303;27;47256;-71
2023/06/11 00:48:38;;;;;;;7.30;4.43;;;21.40;74.00;;;;;;5122078;27;45576;-71
2023/06/11 00:51:05;;;;;;;7.93;4.10;;;21.40;74.00;;;;;;5122676;27;45299;-71
2023/06/11 00:53:33;;;;;;;7.47;4.47;;;21.40;74.50;;;;;;5124862;27;45647;-71
2023/06/11 00:56:00;;;;;;;6.20;4.63;;;21.40;74.50;;;;;;5121109;27;47977;-71
2023/06/11 00:58:27;;;;;;;10.60;4.70;;;21.30;74.40;;;;;;5123186;27;45333;-71
2023/06/11 01:00:58;;;;;;;7.28;4.50;;;21.40;74.90;;;;;;5118705;27;45303;-72
2023/06/11 01:03:27;;;;;;;6.20;4.10;;;21.30;74.40;;;;;;5119757;27;45407;-72
2023/06/11 01:06:01;;;;;;;6.75;4.55;;;21.30;74.60;;;;;;5119864;27;46346;-72
2023/06/11 01:08:30;;;;;;;5.13;4.13;;;21.30;75.00;;;;;;5120364;27;45433;-71
2023/06/11 01:11:01;;;;;;;7.20;4.63;;;21.30;75.00;;;;;;5121863;27;45454;-72
2023/06/11 01:13:28;;;;;;;9.52;4.50;;;21.30;75.20;;;;;;5111383;27;45477;-71
2023/06/11 01:15:59;;;;;;;7.67;4.20;;;21.20;75.00;;;;;;5121967;27;46643;-72
2023/06/11 01:18:30;;;;;;;6.25;4.43;;;21.20;75.20;;;;;;5122049;27;45419;-71
2023/06/11 01:21:01;;;;;;;5.50;4.30;;;21.20;75.30;;;;;;5123176;27;45482;-71
2023/06/11 01:23:41;;;;;;;9.57;4.43;;;21.10;75.60;;;;;;5119289;27;45669;-71
2023/06/11 01:26:35;;;;;;;7.43;4.18;;;21.10;75.40;;;;;;5118440;27;46248;-71
2023/06/11 01:29:05;;;;;;;5.28;4.20;;;21.10;75.70;;;;;;5118869;27;45340;-71
2023/06/11 01:31:37;;;;;;;7.20;3.90;;;21.10;76.00;;;;;;5126029;27;45359;-71
2023/06/11 01:34:04;;;;;;;7.57;4.47;;;21.10;76.10;;;;;;5115467;27;45435;-71
2023/06/11 01:36:34;;;;;;;6.43;4.20;;;21.10;76.60;;;;;;5107537;27;46178;-71
2023/06/11 01:39:01;;;;;;;7.18;4.30;;;21.10;76.50;;;;;;5108802;27;46303;-71
2023/06/11 01:41:28;;;;;;;5.97;4.20;;;21.20;76.50;;;;;;5116778;27;45473;-72
2023/06/11 01:43:55;;;;;;;6.80;4.20;;;21.20;76.60;;;;;;5121815;27;45391;-71
2023/06/11 01:46:23;;;;;;;6.72;4.18;;;21.10;76.70;;;;;;5119297;27;47314;-71
2023/06/11 01:48:50;;;;;;;8.15;4.32;;;21.10;77.40;;;;;;5118249;27;45374;-71
2023/06/11 01:51:17;;;;;;;6.45;4.05;;;21.10;77.60;;;;;;5122380;27;45406;-71
2023/06/11 01:53:44;;;;;;;9.27;4.35;;;21.10;77.30;;;;;;5122466;27;45519;-71
2023/06/11 01:56:11;;;;;;;5.25;4.10;;;21.00;77.70;;;;;;5112832;27;48402;-71
2023/06/11 01:58:38;;;;;;;4.97;4.00;;;21.00;77.80;;;;;;5108810;27;45776;-71
2023/06/11 02:01:08;;;;;;;6.60;4.45;;;21.00;77.90;;;;;;5120813;27;45333;-71
2023/06/11 02:03:36;;;;;;;5.93;4.28;;;21.00;78.80;;;;;;5117783;27;45311;-71
2023/06/11 02:06:02;;;;;;;9.73;4.80;;;20.90;79.10;;;;;;5116775;27;46852;-71
2023/06/11 02:08:29;;;;;;;8.35;4.90;;;20.90;79.00;;;;;;5116342;27;45399;-71
2023/06/11 02:10:56;;;;;;;5.43;4.30;;;20.80;78.90;;;;;;5118084;27;45549;-71
2023/06/11 02:13:25;;;;;;;7.15;4.43;;;20.80;79.40;;;;;;5117717;27;45461;-72
2023/06/11 02:15:52;;;;;;;5.72;4.30;;;20.70;79.90;;;;;;5118704;27;47914;-71
2023/06/11 02:18:19;;;;;;;5.72;4.70;;;20.70;80.00;;;;;;5116203;27;45512;-71
2023/06/11 02:20:47;;;;;;;6.25;4.85;;;20.80;80.40;;;;;;5114427;27;45325;-71
2023/06/11 02:23:14;;;;;;;8.40;4.15;;;20.80;79.80;;;;;;5110046;27;45525;-71
2023/06/11 02:25:40;;;;;;;7.95;4.68;;;20.90;80.10;;;;;;5107824;27;45453;-71
2023/06/11 02:28:07;;;;;;;7.47;4.80;;;21.00;79.10;;;;;;5117411;27;45283;-71
2023/06/11 02:30:34;;;;;;;5.22;4.35;;;21.00;79.10;;;;;;5123356;27;45339;-71
2023/06/11 02:33:01;;;;;;;7.35;4.53;;;21.00;80.00;;;;;;5115049;27;45273;-71
2023/06/11 02:35:27;;;;;;;7.13;3.53;;;21.10;79.20;;;;;;5118019;27;47505;-70
2023/06/11 02:37:56;;;;;;;4.82;3.60;;;21.10;79.20;;;;;;5118338;27;45785;-71
2023/06/11 02:40:22;;;;;;;5.55;3.65;;;21.10;80.20;;;;;;5122105;27;45425;-71
2023/06/11 02:42:49;;;;;;;5.53;3.67;;;21.20;79.30;;;;;;5122975;27;45402;-71
2023/06/11 02:45:16;;;;;;;4.18;3.30;;;21.20;79.30;;;;;;5118467;27;46733;-71
2023/06/11 02:47:43;;;;;;;5.00;3.97;;;21.20;78.30;;;;;;5116186;27;45482;-71
2023/06/11 02:50:10;;;;;;;5.78;4.32;;;21.10;78.90;;;;;;5119204;27;45365;-71
2023/06/11 02:52:37;;;;;;;7.75;3.90;;;21.10;80.20;;;;;;5109290;27;45279;-72
2023/06/11 02:55:06;;;;;;;3.97;3.33;;;21.20;79.20;;;;;;5124044;27;46620;-72
2023/06/11 02:57:33;;;;;;;4.60;3.10;;;21.30;79.40;;;;;;5121776;27;45321;-71
2023/06/11 03:00:00;;;;;;;6.35;3.90;;;21.40;79.40;;;;;;5103842;27;45470;-71
2023/06/11 03:02:26;;;;;;;5.38;3.80;;;21.30;77.60;;;;;;5103543;27;45428;-70
2023/06/11 03:04:53;;;;;;;6.63;3.40;;;21.20;77.70;;;;;;5104719;27;46672;-71
2023/06/11 03:07:20;;;;;;;4.93;3.65;;;21.20;79.20;;;;;;5109081;27;45450;-71
2023/06/11 03:09:47;;;;;;;7.90;4.18;;;21.30;79.40;;;;;;5119041;27;45470;-71
2023/06/11 03:12:15;;;;;;;7.55;3.85;;;21.20;78.20;;;;;;5115213;27;45283;-71
2023/06/11 03:14:42;;;;;;;5.57;3.55;;;21.30;78.50;;;;;;5112876;27;48137;-72
2023/06/11 03:17:09;;;;;;;5.97;3.88;;;21.30;78.70;;;;;;5107722;27;45374;-72
2023/06/11 03:19:36;;;;;;;6.68;4.25;;;21.30;79.40;;;;;;5110615;27;45294;-71
2023/06/11 03:22:02;;;;;;;9.82;4.10;;;21.20;78.80;;;;;;5123136;27;45274;-71
2023/06/11 03:24:29;;;;;;;4.72;3.78;;;21.20;79.20;;;;;;5123161;27;47144;-71
2023/06/11 03:26:56;;;;;;;5.15;3.97;;;21.00;79.10;;;;;;5111240;27;45422;-71
2023/06/11 03:29:24;;;;;;;5.63;3.88;;;21.10;79.20;;;;;;5103671;27;45308;-71
2023/06/11 03:31:51;;;;;;;8.95;4.20;;;21.20;78.70;;;;;;5103353;27;45518;-71
2023/06/11 03:34:18;;;;;;;7.22;3.65;;;21.30;78.00;;;;;;5113208;27;45242;-71
2023/06/11 03:36:45;;;;;;;4.05;3.00;;;21.30;79.40;;;;;;5116463;27;45490;-71
2023/06/11 03:39:11;;;;;;;3.92;3.00;;;21.30;79.40;;;;;;5115174;27;45485;-71
2023/06/11 03:41:38;;;;;;;3.85;2.60;;;21.40;79.40;;;;;;5110960;27;45297;-71
2023/06/11 03:44:05;;;;;;;5.70;3.75;;;21.40;79.40;;;;;;5112009;27;47052;-71
2023/06/11 03:46:33;;;;;;;4.40;3.47;;;21.40;78.10;;;;;;5121438;27;45445;-71
2023/06/11 03:49:00;;;;;;;5.43;3.78;;;21.40;78.80;;;;;;5110926;27;45623;-71
2023/06/11 03:51:27;;;;;;;5.40;3.45;;;21.40;79.40;;;;;;5121591;27;46090;-71
2023/06/11 03:53:54;;;;;;;3.83;3.20;;;21.40;79.40;;;;;;5114297;27;46284;-71
2023/06/11 03:56:21;;;;;;;6.90;3.83;;;21.40;79.40;;;;;;5108053;27;45403;-71
2023/06/11 03:58:48;;;;;;;7.50;3.88;;;21.40;77.90;;;;;;5114277;27;45279;-71
2023/06/11 04:01:15;;;;;;;5.35;3.47;;;21.40;78.30;;;;;;5109944;27;45295;-71
2023/06/11 04:03:43;;;;;;;7.90;4.50;;;21.40;78.20;;;;;;5110891;27;46091;-71
2023/06/11 04:06:10;;;;;;;4.50;3.50;;;21.40;78.40;;;;;;5107604;27;45748;-71
2023/06/11 04:08:36;;;;;;;4.80;3.40;;;21.40;79.40;;;;;;5126107;27;45386;-71
2023/06/11 04:11:03;;;;;;;5.05;3.50;;;21.40;79.50;;;;;;5113964;27;45477;-71
2023/06/11 04:13:30;;;;;;;6.80;4.28;;;21.40;78.90;;;;;;5125853;27;48726;-71
2023/06/11 04:15:57;;;;;;;5.80;3.80;;;21.40;77.80;;;;;;5116960;27;45438;-71
2023/06/11 04:18:23;;;;;;;5.47;3.70;;;21.20;79.20;;;;;;5123815;27;45459;-71
2023/06/11 04:20:51;;;;;;;4.82;2.95;;;21.20;79.20;;;;;;5117217;27;45369;-71
2023/06/11 04:23:18;;;;;;;3.67;3.15;;;21.30;79.40;;;;;;5120127;27;45458;-71
2023/06/11 04:25:48;;;;;;;6.97;3.97;;;21.40;79.50;;;;;;5112543;27;45288;-71
2023/06/11 04:28:16;;;;;;;4.72;3.97;;;21.30;79.10;;;;;;5107545;27;45296;-71
2023/06/11 04:30:42;;;;;;;5.97;4.10;;;21.30;79.40;;;;;;5114032;27;45689;-71
2023/06/11 04:33:09;;;;;;;5.22;4.22;;;21.30;79.40;;;;;;5116669;27;45351;-70
2023/06/11 04:35:37;;;;;;;6.68;3.90;;;21.40;79.40;;;;;;5116436;27;45366;-71
2023/06/11 04:38:05;;;;;;;7.03;4.13;;;21.40;79.40;;;;;;5115542;27;45442;-71
2023/06/11 04:40:33;;;;;;;5.43;4.05;;;21.40;79.40;;;;;;5124404;27;45446;-71
2023/06/11 04:43:00;;;;;;;4.55;3.85;;;21.40;79.80;;;;;;5123749;27;45370;-71
2023/06/11 04:45:28;;;;;;;5.50;4.25;;;21.30;79.40;;;;;;5120705;27;45371;-71
2023/06/11 04:47:55;;;;;;;4.78;3.13;;;21.30;79.40;;;;;;5114531;27;45443;-71
2023/06/11 04:50:21;;;;;;;4.45;3.17;;;21.30;80.00;;;;;;5120065;27;45593;-71
2023/06/11 04:52:51;;;;;;;11.40;5.05;;;21.30;79.40;;;;;;5122096;27;47650;-71
2023/06/11 04:55:21;;;;;;;3.90;3.05;;;21.30;79.40;;;;;;5114316;27;45298;-71
2023/06/11 04:57:49;;;;;;;3.50;2.58;;;21.40;79.40;;;;;;5105475;27;45437;-72
2023/06/11 05:00:17;;;;;;;6.00;3.50;;;21.40;79.50;;;;;;5106903;27;45419;-71
2023/06/11 05:02:44;;;;;;;3.55;2.85;;;21.40;79.40;;;;;;5110102;27;46393;-72
2023/06/11 05:05:11;;;;;;;5.78;4.30;;;21.40;79.40;;;;;;5113968;27;45353;-70
2023/06/11 05:07:38;;;;;;;3.40;2.60;;;21.40;79.20;;;;;;5106564;27;45289;-71
2023/06/11 05:10:06;;;;;;;2.85;2.55;;;21.40;79.40;;;;;;5111082;27;45433;-71
2023/06/11 05:12:34;;;;;;;3.90;3.20;;;21.50;79.50;;;;;;5123396;27;45574;-72
2023/06/11 05:15:01;;;;;;;5.80;3.15;;;21.50;79.50;;;;;;5123396;27;45442;-71
2023/06/11 05:17:28;;;;;;;3.67;2.65;;;21.50;79.50;;;;;;5124512;27;45254;-71
2023/06/11 05:19:55;;;;;;;2.55;2.35;;;21.50;79.50;;;;;;5116791;27;45296;-71
2023/06/11 05:22:23;;;;;;;2.90;2.60;;;21.50;79.50;;;;;;5119630;27;47139;-71
2023/06/11 05:24:49;;;;;;;3.03;2.40;;;21.50;79.60;;;;;;5107682;27;45312;-71
2023/06/11 05:27:16;;;;;;;2.83;2.40;;;21.50;79.90;;;;;;5118883;27;45561;-71
2023/06/11 05:29:45;;;;;;;3.40;2.60;;;21.50;79.90;;;;;;5125593;27;45438;-71
2023/06/11 05:32:14;;;;;;;2.88;2.35;;;21.50;80.20;;;;;;5109842;27;47070;-71
2023/06/11 05:34:41;;;;;;;2.60;2.40;;;21.50;79.70;;;;;;5125283;27;46328;-71
2023/06/11 05:37:08;;;;;;;2.88;2.35;;;21.60;79.60;;;;;;5116061;27;45265;-71
2023/06/11 05:39:35;;;;;;;2.95;2.60;;;21.60;79.60;;;;;;5112778;27;45204;-71
2023/06/11 05:42:01;;;;;;;3.20;2.42;;;21.60;79.60;;;;;;5104984;27;45435;-71
2023/06/11 05:44:28;;;;;;;2.97;2.63;;;21.60;79.60;;;;;;5108297;27;46668;-71
2023/06/11 05:46:56;;;;;;;3.00;2.25;;;21.70;79.70;;;;;;5122527;27;45414;-70
2023/06/11 05:49:23;;;;;;;4.25;2.88;;;21.70;79.70;;;;;;5113160;27;45384;-71
2023/06/11 05:51:50;;;;;;;3.47;2.67;;;21.60;79.60;;;;;;5125271;27;47375;-71
2023/06/11 05:54:16;;;;;;;4.10;2.65;;;21.70;79.70;;;;;;5125838;27;45408;-71
2023/06/11 05:56:45;;;;;;;3.30;2.70;;;21.70;79.70;;;;;;5117312;27;45432;-71
2023/06/11 05:59:11;;;;;;;2.60;2.40;;;21.70;79.80;;;;;;5123857;27;45248;-70
2023/06/11 06:01:38;;;;;;;2.78;2.47;;;21.70;79.70;;;;;;5121276;27;48203;-71
2023/06/11 06:04:06;;;;;;;2.75;2.33;;;21.70;79.70;;;;;;5115375;27;45563;-70
2023/06/11 06:06:33;;;;;;;2.90;2.58;;;21.70;79.70;;;;;;5116518;27;45421;-70
2023/06/11 06:09:00;;;;;;;3.20;2.78;;;21.70;79.70;;;;;;5120128;27;45470;-71
2023/06/11 06:11:26;;;;;;;3.17;2.40;;;21.70;79.70;;;;;;5110452;27;47503;-71
2023/06/11 06:13:53;;;;;;;5.72;2.92;;;21.70;79.80;;;;;;5118278;27;45288;-71
2023/06/11 06:16:20;;;;;;;5.45;4.25;;;21.70;79.70;;;;;;5115063;27;45445;-71
2023/06/11 06:18:47;;;;;;;5.18;4.13;;;21.70;80.10;;;;;;5115646;27;45319;-71
2023/06/11 06:21:15;;;;;;;6.18;4.47;;;21.70;80.50;;;;;;5125019;27;46991;-71
2023/06/11 06:23:42;;;;;;;6.95;3.67;;;21.70;80.30;;;;;;5123197;27;45633;-71
2023/06/11 06:26:08;;;;;;;6.38;4.15;;;21.70;80.80;;;;;;5114736;27;45430;-71
2023/06/11 06:28:36;;;;;;;7.72;4.47;;;21.70;81.00;;;;;;5118606;27;45485;-70
2023/06/11 06:31:07;;;;;;;8.82;4.40;;;21.70;81.60;;;;;;5124394;27;47085;-71
2023/06/11 06:33:37;;;;;;;6.03;4.35;;;21.80;81.80;;;;;;5123330;27;45245;-71
2023/06/11 06:36:04;;;;;;;8.50;4.30;;;21.80;81.20;;;;;;5118789;27;45418;-71
2023/06/11 06:38:33;;;;;;;5.07;4.15;;;21.80;81.90;;;;;;5118450;27;45444;-71
2023/06/11 06:40:59;;;;;;;5.05;3.85;;;21.80;81.70;;;;;;5115185;27;46632;-71
2023/06/11 06:43:26;;;;;;;4.63;4.13;;;21.70;81.40;;;;;;5120351;27;45457;-71
2023/06/11 06:45:53;;;;;;;7.32;4.70;;;21.70;81.80;;;;;;5114528;27;45354;-71
2023/06/11 06:48:22;;;;;;;6.35;4.00;;;21.80;81.60;;;;;;5103818;27;45413;-71
2023/06/11 06:50:49;;;;;;;5.50;4.72;;;21.70;81.60;;;;;;5120412;27;46609;-71
2023/06/11 06:53:16;;;;;;;7.28;4.50;;;21.80;80.50;;;;;;5121431;27;45309;-71
2023/06/11 06:55:45;;;;;;;5.63;3.97;;;21.80;80.70;;;;;;5107573;27;45330;-70
2023/06/11 06:58:11;;;;;;;5.35;3.95;;;21.80;81.70;;;;;;5114310;27;45800;-72
2023/06/11 07:00:38;;;;;;;8.00;4.10;;;21.80;81.40;;;;;;5116776;27;47304;-72
2023/06/11 07:03:05;;;;;;;7.38;4.72;;;21.80;80.40;;;;;;5118792;27;45352;-71
2023/06/11 07:05:32;;;;;;;4.97;4.30;;;21.80;80.90;;;;;;5120007;27;45588;-71
2023/06/11 07:07:59;;;;;;;6.90;4.70;;;21.80;80.80;;;;;;5112666;27;45551;-72
2023/06/11 07:10:25;;;;;;;4.90;3.75;;;21.90;80.60;;;;;;5113117;27;46845;-72
2023/06/11 07:12:53;;;;;;;3.70;3.40;;;21.80;80.70;;;;;;5112479;27;46723;-71
2023/06/11 07:15:21;;;;;;;3.50;3.13;;;21.80;80.70;;;;;;5112879;27;45423;-71
2023/06/11 07:17:47;;;;;;;3.72;2.75;;;21.70;81.20;;;;;;5118671;27;45489;-71
2023/06/11 07:20:14;;;;;;;2.90;2.60;;;21.70;81.10;;;;;;5119719;27;47519;-71
2023/06/11 07:22:41;;;;;;;2.53;2.25;;;21.70;80.70;;;;;;5114431;27;45620;-72
2023/06/11 07:25:09;;;;;;;4.72;3.58;;;21.80;79.90;;;;;;5116679;27;45450;-72
2023/06/11 07:27:36;;;;;;;4.00;2.67;;;21.80;79.80;;;;;;5120761;27;45540;-72
2023/06/11 07:30:05;;;;;;;2.55;2.33;;;21.80;80.70;;;;;;5119124;27;45281;-72
2023/06/11 07:32:32;;;;;;;3.63;3.00;;;21.80;79.80;;;;;;5108649;27;45371;-72
2023/06/11 07:34:59;;;;;;;2.88;2.42;;;21.80;79.80;;;;;;5109989;27;45477;-72
2023/06/11 07:37:25;;;;;;;5.20;3.30;;;21.80;79.80;;;;;;5116659;27;45320;-72
2023/06/11 07:39:52;;;;;;;3.10;2.80;;;21.80;79.80;;;;;;5114436;27;46445;-71
2023/06/11 07:42:19;;;;;;;3.40;2.47;;;21.90;80.00;;;;;;5103078;27;45474;-73
2023/06/11 07:44:46;;;;;;;3.40;2.85;;;21.90;79.90;;;;;;5120672;27;45248;-72
2023/06/11 07:47:14;;;;;;;4.15;2.97;;;21.90;79.90;;;;;;5118859;27;45671;-71
2023/06/11 07:49:41;;;;;;;4.30;3.20;;;21.80;80.50;;;;;;5123348;27;46414;-72
2023/06/11 07:52:08;;;;;;;3.78;2.78;;;21.70;80.80;;;;;;5118989;27;45662;-72
2023/06/11 07:54:34;;;;;;;2.38;2.17;;;21.70;80.50;;;;;;5123898;27;45444;-73
2023/06/11 07:57:01;;;;;;;3.30;2.63;;;21.70;80.80;;;;;;5112094;27;45544;-72
2023/06/11 07:59:29;;;;;;;3.67;3.05;;;21.80;80.70;;;;;;5120677;27;47309;-72
2023/06/11 08:01:56;;;;;;;3.20;2.55;;;21.80;80.90;;;;;;5122846;27;45413;-72
2023/06/11 08:04:25;;;;;;;3.10;2.80;;;21.80;80.30;;;;;;5123533;27;45488;-71
2023/06/11 08:06:54;;;;;;;2.97;2.55;;;21.80;79.80;;;;;;5122211;27;45522;-71
2023/06/11 08:09:20;;;;;;;3.28;2.72;;;21.80;80.20;;;;;;5119407;27;47069;-72
2023/06/11 08:11:48;;;;;;;4.25;3.00;;;21.80;80.10;;;;;;5115614;27;45495;-71
2023/06/11 08:14:18;;;;;;;3.55;2.70;;;21.80;79.80;;;;;;5122052;27;45528;-71
2023/06/11 08:16:45;;;;;;;3.45;2.92;;;21.90;79.90;;;;;;5116946;27;45481;-73
2023/06/11 08:19:12;;;;;;;5.13;4.00;;;21.80;79.80;;;;;;5117181;27;47272;-73
2023/06/11 08:21:41;;;;;;;3.28;2.97;;;21.90;79.90;;;;;;5119139;27;45500;-71
2023/06/11 08:24:08;;;;;;;6.70;3.83;;;21.90;79.90;;;;;;5110279;27;45639;-71
2023/06/11 08:26:34;;;;;;;3.20;2.90;;;21.90;79.90;;;;;;5114624;27;45319;-71
2023/06/11 08:29:01;;;;;;;4.40;3.20;;;21.90;79.90;;;;;;5113755;27;47814;-71
2023/06/11 08:31:28;;;;;;;3.28;2.60;;;21.90;79.90;;;;;;5119115;27;46118;-72
2023/06/11 08:33:55;;;;;;;3.50;2.58;;;21.80;80.30;;;;;;5103691;27;45379;-72
2023/06/11 08:36:22;;;;;;;2.92;2.33;;;21.80;80.20;;;;;;5114098;27;45366;-72
2023/06/11 08:38:50;;;;;;;2.60;2.40;;;21.80;80.20;;;;;;5107128;27;46564;-72
2023/06/11 08:41:17;;;;;;;4.20;2.60;;;21.90;80.20;;;;;;5103937;27;45389;-72
2023/06/11 08:43:43;;;;;;;3.20;2.60;;;21.80;80.50;;;;;;5103160;27;45361;-71
2023/06/11 08:46:14;;;;;;;3.30;2.45;;;21.80;80.30;;;;;;5114553;27;45556;-72
2023/06/11 08:48:43;;;;;;;3.03;2.60;;;21.90;80.20;;;;;;5116816;27;48300;-72
2023/06/11 08:51:11;;;;;;;3.03;2.47;;;21.80;79.90;;;;;;5117449;27;45586;-72
2023/06/11 08:53:39;;;;;;;4.40;2.40;;;21.80;80.10;;;;;;5123951;27;45559;-71
2023/06/11 08:56:07;;;;;;;6.03;3.17;;;21.90;80.50;;;;;;5123769;27;45537;-71
2023/06/11 08:58:36;;;;;;;3.35;2.88;;;21.80;80.30;;;;;;5125742;27;48365;-71
2023/06/11 09:01:09;;;;;;;5.65;3.00;;;21.80;80.20;;;;;;5121034;27;45317;-71
2023/06/11 09:03:36;;;;;;;2.92;2.63;;;21.80;80.20;;;;;;5124843;27;45426;-71
2023/06/11 09:06:03;;;;;;;3.00;2.63;;;21.80;79.80;;;;;;5122538;27;45316;-72
2023/06/11 09:08:30;;;;;;;3.00;2.47;;;21.80;81.20;;;;;;5117053;27;48639;-72
2023/06/11 09:10:57;;;;;;;4.10;2.70;;;21.70;81.20;;;;;;5114568;27;45267;-72
2023/06/11 09:13:27;;;;;;;2.88;2.42;;;21.70;81.10;;;;;;5058315;27;1126773;-72
2023/06/11 09:15:55;;;;;;;3.85;2.70;;;21.70;81.90;;;;;;5115056;27;45261;-72
2023/06/11 09:18:23;;;;;;;3.03;2.72;;;21.70;81.10;;;;;;5114330;27;47531;-72
2023/06/11 09:20:51;;;;;;;3.83;2.60;;;21.70;81.00;;;;;;5124767;27;45393;-72
2023/06/11 09:23:29;;;;;;;3.00;2.65;;;21.80;80.80;;;;;;5118371;27;45498;-72
2023/06/11 09:25:56;;;;;;;3.55;2.75;;;21.90;79.90;;;;;;5124703;27;45576;-73
2023/06/11 09:28:30;;;;;;;2.72;2.45;;;21.90;79.90;;;;;;5125567;27;46759;-71
2023/06/11 09:30:58;;;;;;;2.63;2.42;;;21.90;79.90;;;;;;5125239;27;45463;-73
2023/06/11 09:33:25;;;;;;;3.15;2.60;;;21.80;79.80;;;;;;5125013;27;45252;-71
2023/06/11 09:35:52;;;;;;;2.67;2.47;;;21.80;79.80;;;;;;5124690;27;45289;-71
2023/06/11 09:38:20;;;;;;;2.80;2.40;;;21.80;80.10;;;;;;5116809;27;45398;-71
2023/06/11 09:40:47;;;;;;;2.58;2.38;;;21.90;79.90;;;;;;5124527;27;46040;-73
2023/06/11 09:43:14;;;;;;;4.90;2.80;;;21.90;80.00;;;;;;5120905;27;45352;-72
2023/06/11 09:45:43;;;;;;;2.80;2.33;;;21.90;79.90;;;;;;5124838;27;45432;-72
2023/06/11 09:48:12;;;;;;;2.95;2.65;;;21.90;79.90;;;;;;5127520;27;47515;-72
2023/06/11 09:50:39;;;;;;;2.35;2.08;;;21.90;79.90;;;;;;5125185;27;45929;-72
2023/06/11 09:53:08;;;;;;;2.97;2.38;;;21.90;79.90;;;;;;5119606;27;45456;-71
2023/06/11 09:55:35;;;;;;;2.42;2.22;;;21.90;79.90;;;;;;5119652;27;45240;-71
2023/06/11 09:58:03;;;;;;;3.20;2.53;;;21.90;79.90;;;;;;5124512;27;48311;-72
2023/06/11 10:00:31;;;;;;;2.75;2.38;;;21.90;80.20;;;;;;5124558;27;45341;-71
2023/06/11 10:02:59;;;;;;;2.90;2.58;;;21.80;80.00;;;;;;5118421;27;45551;-72
2023/06/11 10:05:27;;;;;;;2.55;2.33;;;21.90;80.20;;;;;;5122051;27;45390;-73
2023/06/11 10:07:59;;;;;;;3.42;2.40;;;21.80;80.40;;;;;;5114370;27;48070;-72
2023/06/11 10:10:29;;;;;;;2.50;2.30;;;21.80;80.50;;;;;;5115617;27;45404;-73
2023/06/11 10:12:56;;;;;;;2.42;2.22;;;21.80;80.70;;;;;;5113051;27;45496;-73
2023/06/11 10:15:24;;;;;;;2.45;2.20;;;21.90;80.30;;;;;;5116420;27;45468;-72
2023/06/11 10:17:52;;;;;;;3.67;2.20;;;21.80;80.10;;;;;;5116699;27;47317;-71
2023/06/11 10:20:26;;;;;;;2.60;2.33;;;21.90;80.30;;;;;;5118075;27;45300;-71
2023/06/11 10:23:03;;;;;;;3.00;2.70;;;21.90;79.90;;;;;;5120884;27;45281;-71
2023/06/11 10:25:33;;;;;;;2.63;2.28;;;21.90;79.90;;;;;;5116618;27;45316;-72
2023/06/11 10:28:00;;;;;;;3.17;2.30;;;21.90;79.90;;;;;;5115553;27;48286;-72
2023/06/11 10:30:27;;;;;;;3.42;2.22;;;21.90;79.90;;;;;;5125021;27;45283;-71
2023/06/11 10:32:56;;;;;;;2.40;2.00;;;21.90;79.90;;;;;;5123744;27;45267;-71
2023/06/11 10:35:28;;;;;;;2.20;2.00;;;21.90;79.90;;;;;;5117875;27;45433;-71
2023/06/11 10:38:04;;;;;;;2.85;2.55;;;21.90;79.90;;;;;;5121279;27;47368;-71
2023/06/11 10:40:38;;;;;;;2.65;2.17;;;21.90;79.90;;;;;;5109412;27;45275;-71
2023/06/11 10:43:15;;;;;;;2.67;2.08;;;21.90;79.90;;;;;;5121624;27;45453;-71
2023/06/11 10:45:42;;;;;;;2.40;2.20;;;21.90;79.50;;;;;;5119693;27;45515;-71
2023/06/11 10:48:11;;;;;;;2.33;2.03;;;21.90;79.40;;;;;;5104318;27;47529;-73
2023/06/11 10:50:39;;;;;;;3.25;2.47;;;21.90;79.90;;;;;;5115105;27;45425;-71
2023/06/11 10:53:12;;;;;;;2.60;2.20;;;21.80;79.40;;;;;;5113003;27;45446;-71
2023/06/11 10:55:43;;;;;;;3.05;2.20;;;21.90;79.20;;;;;;5118647;27;45388;-72
2023/06/11 10:58:19;;;;;;;2.47;2.28;;;21.90;78.90;;;;;;5113378;27;46252;-72
2023/06/11 11:00:46;;;;;;;2.78;2.28;;;21.80;79.80;;;;;;5116717;27;45741;-71
2023/06/11 11:03:13;;;;;;;2.63;2.10;;;21.80;79.80;;;;;;5106861;27;45409;-72
2023/06/11 11:05:43;;;;;;;3.83;2.45;;;21.80;79.80;;;;;;5113894;27;45450;-73
2023/06/11 11:08:11;;;;;;;3.22;2.30;;;21.90;79.30;;;;;;5118234;27;47597;-73
2023/06/11 11:10:38;;;;;;;2.50;2.30;;;21.80;79.20;;;;;;5110427;27;45714;-72
2023/06/11 11:13:05;;;;;;;4.03;2.33;;;21.90;79.20;;;;;;5121108;27;45321;-72
2023/06/11 11:15:32;;;;;;;3.60;2.80;;;21.90;79.70;;;;;;5117040;27;45378;-73
2023/06/11 11:17:58;;;;;;;2.80;2.50;;;21.80;79.80;;;;;;5107259;27;47474;-71
2023/06/11 11:20:25;;;;;;;2.53;2.20;;;21.80;79.50;;;;;;5118297;27;45311;-71
2023/06/11 11:22:56;;;;;;;2.50;2.00;;;21.90;79.10;;;;;;5112457;27;45253;-72
2023/06/11 11:25:25;;;;;;;3.00;2.10;;;21.90;79.10;;;;;;5117048;27;45313;-72
2023/06/11 11:27:52;;;;;;;2.95;2.17;;;21.90;78.60;;;;;;5116511;27;47649;-71
2023/06/11 11:30:19;;;;;;;2.50;2.25;;;21.90;78.70;;;;;;5114951;27;45386;-72
2023/06/11 11:32:46;;;;;;;3.05;2.08;;;22.00;78.60;;;;;;5113209;27;45456;-71
2023/06/11 11:35:15;;;;;;;2.90;2.00;;;22.00;78.50;;;;;;5107837;27;45603;-72
2023/06/11 11:37:41;;;;;;;2.15;1.88;;;21.90;78.40;;;;;;5107583;27;47512;-71
2023/06/11 11:40:11;;;;;;;2.70;2.10;;;21.90;78.40;;;;;;5114454;27;45460;-72
2023/06/11 11:42:49;;;;;;;2.88;2.10;;;21.90;78.10;;;;;;5117052;27;45543;-71
2023/06/11 11:45:17;;;;;;;3.88;2.28;;;21.90;77.90;;;;;;5119492;27;45394;-73
2023/06/11 11:47:46;;;;;;;2.53;2.03;;;21.90;78.00;;;;;;5122594;27;47942;-72
2023/06/11 11:50:21;;;;;;;2.17;1.90;;;21.90;77.80;;;;;;5111298;27;45430;-72
2023/06/11 11:53:02;;;;;;;7.13;3.13;;;21.80;78.20;;;;;;5108919;27;45573;-72
2023/06/11 11:55:32;;;;;;;4.05;2.70;;;21.70;78.60;;;;;;5116536;27;45291;-72
2023/06/11 11:58:06;;;;;;;3.38;2.90;;;21.70;77.90;;;;;;5115478;27;46246;-72
2023/06/11 12:00:34;;;;;;;2.85;2.45;;;21.70;76.80;;;;;;5116704;27;45656;-72
2023/06/11 12:03:08;;;;;;;2.70;2.30;;;21.80;76.60;;;;;;5117164;27;45571;-72
2023/06/11 12:05:35;;;;;;;4.68;2.70;;;21.80;76.30;;;;;;5115083;27;45493;-72
2023/06/11 12:08:03;;;;;;;4.50;2.10;;;21.80;76.30;;;;;;5119030;27;46434;-71
2023/06/11 12:10:31;;;;;;;3.03;2.50;;;21.80;76.40;;;;;;5116493;27;45463;-71
2023/06/11 12:12:58;;;;;;;6.85;3.40;;;21.80;76.60;;;;;;5119696;27;45427;-71
2023/06/11 12:15:25;;;;;;;3.22;2.70;;;21.70;76.50;;;;;;5107417;27;45428;-71
2023/06/11 12:17:52;;;;;;;2.95;2.22;;;21.60;77.50;;;;;;5115871;27;46243;-71
2023/06/11 12:20:20;;;;;;;3.05;2.40;;;21.80;76.80;;;;;;5116301;27;45409;-71
2023/06/11 12:22:47;;;;;;;2.88;2.10;;;21.80;76.30;;;;;;5123458;27;45428;-71
2023/06/11 12:25:14;;;;;;;4.55;2.70;;;21.90;75.90;;;;;;5122872;27;45455;-71
2023/06/11 12:27:43;;;;;;;4.30;2.25;;;21.90;76.80;;;;;;5125367;27;47244;-71
2023/06/11 12:30:11;;;;;;;3.97;2.38;;;21.80;76.60;;;;;;5114163;27;45351;-71
2023/06/11 12:32:38;;;;;;;3.55;2.50;;;21.90;77.00;;;;;;5121615;27;45417;-71
2023/06/11 12:35:06;;;;;;;3.72;2.80;;;21.80;76.60;;;;;;5126431;27;45388;-71
2023/06/11 12:37:32;;;;;;;2.42;2.22;;;21.80;77.30;;;;;;5126359;27;48139;-72
2023/06/11 12:40:00;;;;;;;2.42;1.92;;;21.80;77.10;;;;;;5122799;27;45300;-71
2023/06/11 12:42:27;;;;;;;2.95;2.38;;;21.80;77.30;;;;;;5126266;27;45390;-71
2023/06/11 12:44:55;;;;;;;2.40;2.00;;;21.80;77.30;;;;;;5123721;27;45356;-71
2023/06/11 12:47:22;;;;;;;2.78;2.10;;;21.90;77.50;;;;;;5117411;27;45313;-71
2023/06/11 12:49:49;;;;;;;2.30;2.10;;;21.90;77.30;;;;;;5120076;27;45359;-71